createdAt,value
2018-02-14T00:02:10.836Z,97634.88
2018-02-14T00:04:38.382Z,97632.35
2018-02-14T00:07:06.051Z,97628.72
2018-02-14T00:09:33.614Z,97630.95
2018-02-14T00:12:01.190Z,97625.26
2018-02-14T00:14:28.702Z,97632.85
2018-02-14T00:16:56.255Z,97632.16
2018-02-14T00:19:23.782Z,97631.05
2018-02-14T00:21:51.317Z,97625.89
2018-02-14T00:24:18.850Z,97627.69
2018-02-14T00:26:46.405Z,97629.91
2018-02-14T00:29:13.975Z,97626.98
2018-02-14T00:31:41.502Z,97628.42
2018-02-14T00:34:09.025Z,97629.03
2018-02-14T00:36:36.581Z,97630.54
2018-02-14T00:39:04.136Z,97631.25
2018-02-14T00:41:31.648Z,97629.63
2018-02-14T00:43:59.280Z,97636.81
2018-02-14T00:46:26.826Z,97637.09
2018-02-14T00:48:54.357Z,97636.08
2018-02-14T00:51:21.887Z,97647.30
2018-02-14T00:53:49.396Z,97644.66
2018-02-14T00:56:16.914Z,97648.41
2018-02-14T00:58:44.435Z,97651.44
2018-02-14T01:01:11.955Z,97652.34
2018-02-14T01:03:39.630Z,97650.11
2018-02-14T01:06:07.320Z,97649.75
2018-02-14T01:08:34.856Z,97650.95
2018-02-14T01:11:02.390Z,97653.37
2018-02-14T01:13:29.901Z,97644.58
2018-02-14T01:15:57.584Z,97651.84
2018-02-14T01:18:25.145Z,97650.02
2018-02-14T01:20:53.577Z,97658.02
2018-02-14T01:23:21.100Z,97661.17
2018-02-14T01:25:48.644Z,97661.46
2018-02-14T01:28:16.280Z,97659.63
2018-02-14T01:30:43.818Z,97655.59
2018-02-14T01:33:11.335Z,97659.66
2018-02-14T01:35:38.861Z,97662.48
2018-02-14T01:38:06.395Z,97661.86
2018-02-14T01:40:33.907Z,97655.16
2018-02-14T01:43:01.424Z,97658.71
2018-02-14T01:45:29.090Z,97661.05
2018-02-14T01:47:56.587Z,97657.81
2018-02-14T01:50:35.910Z,97650.51
2018-02-14T01:53:03.479Z,97654.37
2018-02-14T01:55:31.007Z,97660.56
2018-02-14T01:57:58.709Z,97665.36
2018-02-14T02:00:26.252Z,97668.20
2018-02-14T02:02:53.966Z,97675.06
2018-02-14T02:05:21.514Z,97675.17
2018-02-14T02:07:49.068Z,97673.78
2018-02-14T02:10:16.731Z,97668.20
2018-02-14T02:12:44.255Z,97679.20
2018-02-14T02:15:11.802Z,97672.30
2018-02-14T02:17:39.331Z,97671.22
2018-02-14T02:20:06.876Z,97673.56
2018-02-14T02:22:34.603Z,97678.64
2018-02-14T02:25:02.126Z,97672.98
2018-02-14T02:27:29.676Z,97678.75
2018-02-14T02:29:57.226Z,97672.44
2018-02-14T02:32:24.934Z,97677.64
2018-02-14T02:34:52.472Z,97682.96
2018-02-14T02:37:20.030Z,97684.27
2018-02-14T02:39:59.557Z,97686.80
2018-02-14T02:42:27.091Z,97687.44
2018-02-14T02:44:54.651Z,97684.61
2018-02-14T02:47:22.174Z,97683.82
2018-02-14T02:49:49.769Z,97690.06
2018-02-14T02:52:17.316Z,97697.38
2018-02-14T02:54:44.849Z,97693.68
2018-02-14T02:57:12.397Z,97697.88
2018-02-14T02:59:39.926Z,97704.71
2018-02-14T03:02:07.664Z,97702.60
2018-02-14T03:04:35.312Z,97709.55
2018-02-14T03:07:02.952Z,97710.34
2018-02-14T03:09:30.492Z,97715.06
2018-02-14T03:11:58.020Z,97714.07
2018-02-14T03:14:25.549Z,97715.53
2018-02-14T03:16:53.089Z,97715.16
2018-02-14T03:19:20.634Z,97713.52
2018-02-14T03:21:48.162Z,97712.14
2018-02-14T03:24:15.691Z,97716.48
2018-02-14T03:26:43.257Z,97722.38
2018-02-14T03:29:10.795Z,97730.89
2018-02-14T03:31:38.336Z,97727.66
2018-02-14T03:34:05.851Z,97731.19
2018-02-14T03:36:33.417Z,97732.52
2018-02-14T03:39:00.984Z,97738.31
2018-02-14T03:41:28.512Z,97740.95
2018-02-14T03:43:56.030Z,97748.39
2018-02-14T03:46:23.559Z,97750.86
2018-02-14T03:48:51.110Z,97752.80
2018-02-14T03:51:18.634Z,97754.19
2018-02-14T03:53:46.200Z,97757.64
2018-02-14T03:56:13.740Z,97762.07
2018-02-14T03:58:41.301Z,97763.91
2018-02-14T04:01:08.886Z,97766.87
2018-02-14T04:03:36.405Z,97769.08
2018-02-14T04:06:03.939Z,97773.22
2018-02-14T04:08:31.465Z,97781.11
2018-02-14T04:10:58.994Z,97781.52
2018-02-14T04:13:26.544Z,97783.86
2018-02-14T04:15:54.074Z,97787.12
2018-02-14T04:18:21.586Z,97789.66
2018-02-14T04:20:49.111Z,97789.63
2018-02-14T04:23:16.652Z,97799.19
2018-02-14T04:25:44.170Z,97803.12
2018-02-14T04:28:21.665Z,97808.17
2018-02-14T04:30:49.240Z,97810.00
2018-02-14T04:33:16.761Z,97820.96
2018-02-14T04:35:44.282Z,97822.12
2018-02-14T04:38:11.830Z,97824.10
2018-02-14T04:40:39.355Z,97828.76
2018-02-14T04:43:06.881Z,97830.38
2018-02-14T04:45:34.400Z,97833.72
2018-02-14T04:48:01.916Z,97846.16
2018-02-14T04:50:29.442Z,97851.33
2018-02-14T04:52:56.951Z,97858.30
2018-02-14T04:55:24.495Z,97860.48
2018-02-14T04:57:52.036Z,97857.19
2018-02-14T05:00:19.551Z,97852.84
2018-02-14T05:02:47.075Z,97857.27
2018-02-14T05:05:14.606Z,97860.47
2018-02-14T05:07:42.115Z,97860.98
2018-02-14T05:10:09.626Z,97865.55
2018-02-14T05:12:37.166Z,97869.80
2018-02-14T05:15:04.706Z,97868.52
2018-02-14T05:17:32.223Z,97876.42
2018-02-14T05:19:59.750Z,97875.98
2018-02-14T05:22:27.287Z,97878.53
2018-02-14T05:24:54.937Z,97878.75
2018-02-14T05:27:22.510Z,97881.61
2018-02-14T05:29:50.105Z,97884.31
2018-02-14T05:32:17.750Z,97879.86
2018-02-14T05:34:45.407Z,97880.95
2018-02-14T05:37:13.063Z,97888.81
2018-02-14T05:39:40.621Z,97888.27
2018-02-14T05:42:08.270Z,97891.56
2018-02-14T05:44:35.818Z,97897.72
2018-02-14T05:47:03.357Z,97894.68
2018-02-14T05:49:30.900Z,97894.12
2018-02-14T05:51:58.432Z,97897.16
2018-02-14T05:54:26.070Z,97906.73
2018-02-14T05:56:53.627Z,97908.88
2018-02-14T05:59:21.172Z,97910.77
2018-02-14T06:01:48.680Z,97917.33
2018-02-14T06:04:16.206Z,97919.69
2018-02-14T06:06:43.817Z,97924.11
2018-02-14T06:09:11.341Z,97925.96
2018-02-14T06:11:38.861Z,97933.28
2018-02-14T06:14:06.413Z,97937.17
2018-02-14T06:16:33.952Z,97938.62
2018-02-14T06:19:01.502Z,97939.33
2018-02-14T06:21:29.044Z,97944.48
2018-02-14T06:23:56.621Z,97947.73
2018-02-14T06:26:24.162Z,97955.52
2018-02-14T06:28:51.710Z,97956.73
2018-02-14T06:31:19.255Z,97964.93
2018-02-14T06:33:46.826Z,97966.52
2018-02-14T06:36:14.622Z,97966.00
2018-02-14T06:38:42.309Z,97974.61
2018-02-14T06:41:09.861Z,97980.23
2018-02-14T06:43:37.497Z,97977.36
2018-02-14T06:46:05.214Z,97982.23
2018-02-14T06:48:32.896Z,97993.45
2018-02-14T06:51:00.712Z,98001.12
2018-02-14T06:53:28.246Z,97998.33
2018-02-14T06:55:55.793Z,98005.84
2018-02-14T06:58:23.322Z,98004.26
2018-02-14T07:00:50.865Z,98006.60
2018-02-14T07:03:18.401Z,98015.08
2018-02-14T07:05:45.946Z,98015.06
2018-02-14T07:08:13.565Z,98019.17
2018-02-14T07:10:41.089Z,98024.67
2018-02-14T07:13:08.685Z,98024.67
2018-02-14T07:15:36.247Z,98021.31
2018-02-14T07:18:03.805Z,98030.31
2018-02-14T07:20:31.347Z,98028.49
2018-02-14T07:22:59.022Z,98040.53
2018-02-14T07:25:26.572Z,98040.67
2018-02-14T07:27:54.140Z,98042.80
2018-02-14T07:30:21.665Z,98044.30
2018-02-14T07:32:49.180Z,98042.13
2018-02-14T07:35:16.711Z,98047.40
2018-02-14T07:37:44.252Z,98052.00
2018-02-14T07:40:11.791Z,98049.95
2018-02-14T07:42:39.350Z,98050.03
2018-02-14T07:45:06.905Z,98054.62
2018-02-14T07:47:34.461Z,98055.13
2018-02-14T07:50:01.997Z,98059.65
2018-02-14T07:52:29.610Z,98061.22
2018-02-14T07:54:57.176Z,98066.05
2018-02-14T07:57:24.745Z,98068.52
2018-02-14T07:59:52.310Z,98070.21
2018-02-14T08:02:19.855Z,98069.35
2018-02-14T08:04:47.417Z,98075.69
2018-02-14T08:07:14.992Z,98071.31
2018-02-14T08:09:42.551Z,98067.48
2018-02-14T08:12:10.196Z,98074.76
2018-02-14T08:14:37.810Z,98071.63
2018-02-14T08:17:05.390Z,98072.58
2018-02-14T08:19:33.056Z,98075.39
2018-02-14T08:22:00.760Z,98074.20
2018-02-14T08:24:28.560Z,98075.77
2018-02-14T08:26:56.126Z,98072.52
2018-02-14T08:29:23.685Z,98078.15
2018-02-14T08:31:51.246Z,98069.87
2018-02-14T08:34:18.919Z,98070.97
2018-02-14T08:36:46.455Z,98067.67
2018-02-14T08:39:14.007Z,98080.19
2018-02-14T08:41:41.780Z,98079.78
2018-02-14T08:44:09.313Z,98079.75
2018-02-14T08:46:36.876Z,98091.42
2018-02-14T08:49:04.412Z,98093.83
2018-02-14T08:51:31.984Z,98095.39
2018-02-14T08:53:59.521Z,98094.36
2018-02-14T08:56:27.075Z,98095.77
2018-02-14T08:58:54.683Z,98105.05
2018-02-14T09:01:22.375Z,98103.50
2018-02-14T09:03:49.906Z,98110.19
2018-02-14T09:06:17.490Z,98108.03
2018-02-14T09:08:45.081Z,98112.64
2018-02-14T09:11:12.602Z,98114.92
2018-02-14T09:13:40.250Z,98114.55
2018-02-14T09:16:07.812Z,98110.28
2018-02-14T09:18:35.380Z,98117.25
2018-02-14T09:21:02.957Z,98117.02
2018-02-14T09:23:30.576Z,98115.63
2018-02-14T09:25:58.190Z,98109.30
2018-02-14T09:28:25.731Z,98114.11
2018-02-14T09:30:54.104Z,98115.89
2018-02-14T09:33:21.687Z,98118.70
2018-02-14T09:35:49.254Z,98121.48
2018-02-14T09:38:16.960Z,98112.79
2018-02-14T09:40:44.475Z,98108.88
2018-02-14T09:43:12.027Z,98109.35
2018-02-14T09:45:39.586Z,98115.36
2018-02-14T09:48:07.123Z,98112.10
2018-02-14T09:50:34.666Z,98116.80
2018-02-14T09:53:02.187Z,98109.41
2018-02-14T09:55:29.793Z,98117.70
2018-02-14T09:57:57.416Z,98121.24
2018-02-14T10:00:24.967Z,98124.61
2018-02-14T10:02:52.533Z,98113.47
2018-02-14T10:05:20.102Z,98117.84
2018-02-14T10:07:47.635Z,98118.59
2018-02-14T10:10:15.207Z,98122.48
2018-02-14T10:12:42.740Z,98119.11
2018-02-14T10:15:10.318Z,98125.73
2018-02-14T10:17:37.902Z,98127.84
2018-02-14T10:20:05.419Z,98120.27
2018-02-14T10:22:32.971Z,98120.88
2018-02-14T10:25:00.533Z,98117.79
2018-02-14T10:27:28.078Z,98125.16
2018-02-14T10:29:55.621Z,98130.29
2018-02-14T10:32:23.207Z,98137.19
2018-02-14T10:34:50.800Z,98132.24
2018-02-14T10:37:18.365Z,98141.14
2018-02-14T10:39:45.930Z,98138.27
2018-02-14T10:42:13.497Z,98144.97
2018-02-14T10:44:41.145Z,98149.97
2018-02-14T10:47:08.700Z,98147.20
2018-02-14T10:49:36.282Z,98147.80
2018-02-14T10:52:03.825Z,98150.44
2018-02-14T10:54:31.366Z,98153.52
2018-02-14T10:56:58.911Z,98148.16
2018-02-14T10:59:26.466Z,98145.62
2018-02-14T11:01:59.645Z,98151.16
2018-02-14T11:04:27.201Z,98145.09
2018-02-14T11:06:54.711Z,98140.47
2018-02-14T11:09:22.238Z,98135.68
2018-02-14T11:11:49.807Z,98135.31
2018-02-14T11:14:17.339Z,98135.50
2018-02-14T11:16:44.946Z,98145.23
2018-02-14T11:19:12.501Z,98142.82
2018-02-14T11:21:40.040Z,98137.79
2018-02-14T11:24:07.616Z,98141.70
2018-02-14T11:26:35.296Z,98147.28
2018-02-14T11:29:02.898Z,98140.84
2018-02-14T11:31:30.446Z,98141.06
2018-02-14T11:33:58.000Z,98139.32
2018-02-14T11:36:25.638Z,98136.30
2018-02-14T11:38:53.182Z,98147.27
2018-02-14T11:41:20.761Z,98138.23
2018-02-14T11:43:48.302Z,98143.34
2018-02-14T11:46:15.873Z,98149.44
2018-02-14T11:48:43.432Z,98144.84
2018-02-14T11:51:11.078Z,98132.04
2018-02-14T11:53:38.607Z,98131.20
2018-02-14T11:56:06.268Z,98133.15
2018-02-14T11:58:33.864Z,98133.16
2018-02-14T12:01:03.220Z,98130.92
2018-02-14T12:03:30.781Z,98119.27
2018-02-14T12:05:58.330Z,98115.97
2018-02-14T12:08:25.907Z,98122.31
2018-02-14T12:10:53.485Z,98123.92
2018-02-14T12:13:21.003Z,98121.75
2018-02-14T12:15:48.556Z,98122.77
2018-02-14T12:18:16.096Z,98123.98
2018-02-14T12:20:43.812Z,98132.75
2018-02-14T12:23:11.667Z,98119.87
2018-02-14T12:25:39.219Z,98122.03
2018-02-14T12:28:06.772Z,98115.08
2018-02-14T12:30:34.325Z,98117.55
2018-02-14T12:33:01.847Z,98108.80
2018-02-14T12:35:33.251Z,98108.97
2018-02-14T12:38:01.851Z,98107.73
2018-02-14T12:40:29.452Z,98108.25
2018-02-14T12:42:57.001Z,98099.81
2018-02-14T12:45:24.567Z,98102.73
2018-02-14T12:47:52.141Z,98105.58
2018-02-14T12:50:19.782Z,98102.43
2018-02-14T12:52:47.320Z,98101.47
2018-02-14T12:55:14.875Z,98100.98
2018-02-14T12:57:42.517Z,98102.94
2018-02-14T13:00:10.061Z,98101.28
2018-02-14T13:02:37.581Z,98095.29
2018-02-14T13:05:05.235Z,98096.34
2018-02-14T13:07:32.781Z,98098.22
2018-02-14T13:10:00.416Z,98095.69
2018-02-14T13:12:27.947Z,98093.20
2018-02-14T13:14:59.757Z,98090.20
2018-02-14T13:17:27.319Z,98085.55
2018-02-14T13:19:54.853Z,98078.79
2018-02-14T13:22:22.401Z,98083.73
2018-02-14T13:24:49.965Z,98081.11
2018-02-14T13:27:17.506Z,98073.78
2018-02-14T13:29:45.067Z,98076.81
2018-02-14T13:32:12.607Z,98078.58
2018-02-14T13:34:40.152Z,98085.39
2018-02-14T13:37:07.756Z,98080.84
2018-02-14T13:39:35.290Z,98088.09
2018-02-14T13:42:02.927Z,98083.98
2018-02-14T13:44:30.472Z,98083.41
2018-02-14T13:46:57.996Z,98085.95
2018-02-14T13:49:26.417Z,98082.05
2018-02-14T13:51:53.956Z,98082.67
2018-02-14T13:54:21.547Z,98078.13
2018-02-14T13:56:49.103Z,98085.11
2018-02-14T13:59:16.658Z,98078.06
2018-02-14T14:01:44.320Z,98079.73
2018-02-14T14:04:12.037Z,98081.69
2018-02-14T14:06:39.586Z,98086.67
2018-02-14T14:09:07.166Z,98075.61
2018-02-14T14:11:34.703Z,98079.05
2018-02-14T14:14:02.264Z,98080.88
2018-02-14T14:16:29.797Z,98075.73
2018-02-14T14:18:57.321Z,98076.73
2018-02-14T14:21:24.931Z,98077.03
2018-02-14T14:23:52.483Z,98076.86
2018-02-14T14:26:20.032Z,98079.08
2018-02-14T14:28:47.576Z,98080.17
2018-02-14T14:31:15.098Z,98085.53
2018-02-14T14:33:42.633Z,98093.95
2018-02-14T14:36:10.183Z,98093.94
2018-02-14T14:38:37.722Z,98099.33
2018-02-14T14:41:05.255Z,98097.44
2018-02-14T14:43:33.060Z,98094.89
2018-02-14T14:46:03.363Z,98104.08
2018-02-14T14:51:02.858Z,98108.52
2018-02-14T14:53:30.433Z,98097.86
2018-02-14T14:55:57.996Z,98097.59
2018-02-14T14:58:25.535Z,98094.80
2018-02-14T15:00:53.906Z,98090.66
2018-02-14T15:03:21.438Z,98088.55
2018-02-14T15:05:48.972Z,98084.31
2018-02-14T15:08:16.507Z,98083.50
2018-02-14T15:10:44.042Z,98084.39
2018-02-14T15:13:11.590Z,98084.87
2018-02-14T15:15:39.107Z,98087.55
2018-02-14T15:18:06.751Z,98093.17
2018-02-14T15:20:34.304Z,98090.88
2018-02-14T15:23:01.887Z,98103.54
2018-02-14T15:25:29.421Z,98091.56
2018-02-14T15:27:56.997Z,98101.08
2018-02-14T15:30:24.548Z,98095.83
2018-02-14T15:32:52.083Z,98101.31
2018-02-14T15:35:19.639Z,98095.94
2018-02-14T15:37:47.190Z,98090.98
2018-02-14T15:40:14.766Z,98091.52
2018-02-14T15:42:42.291Z,98089.53
2018-02-14T15:45:09.856Z,98086.34
2018-02-14T15:47:37.410Z,98091.55
2018-02-14T15:50:04.937Z,98097.39
2018-02-14T15:52:32.465Z,98091.95
2018-02-14T15:55:00.040Z,98092.95
2018-02-14T15:57:27.642Z,98096.09
2018-02-14T15:59:55.171Z,98100.11
2018-02-14T16:02:22.692Z,98101.45
2018-02-14T16:04:50.256Z,98098.56
2018-02-14T16:07:17.785Z,98098.67
2018-02-14T16:09:45.511Z,98096.67
2018-02-14T16:12:13.119Z,98089.91
2018-02-14T16:14:40.656Z,98094.53
2018-02-14T16:17:08.235Z,98095.81
2018-02-14T16:19:35.757Z,98104.05
2018-02-14T16:22:03.297Z,98115.15
2018-02-14T16:24:30.815Z,98114.77
2018-02-14T16:26:58.373Z,98114.26
2018-02-14T16:29:25.946Z,98120.26
2018-02-14T16:31:53.476Z,98119.60
2018-02-14T16:34:20.986Z,98121.17
2018-02-14T16:36:48.515Z,98125.98
2018-02-14T16:39:16.047Z,98127.19
2018-02-14T16:41:43.836Z,98129.47
2018-02-14T16:44:11.871Z,98138.68
2018-02-14T16:46:39.416Z,98145.66
2018-02-14T16:49:07.355Z,98151.84
2018-02-14T16:51:35.131Z,98150.53
2018-02-14T16:54:03.008Z,98153.00
2018-02-14T16:56:30.945Z,98153.91
2018-02-14T16:58:59.343Z,98164.86
2018-02-14T17:01:26.948Z,98162.63
2018-02-14T17:03:54.505Z,98161.45
2018-02-14T17:06:22.452Z,98164.08
2018-02-14T17:08:51.119Z,98171.95
2018-02-14T17:11:18.883Z,98164.14
2018-02-14T17:13:46.848Z,98166.88
2018-02-14T17:16:14.847Z,98172.18
2018-02-14T17:18:42.815Z,98175.27
2018-02-14T17:21:10.581Z,98182.75
2018-02-14T17:23:38.428Z,98184.92
2018-02-14T17:26:06.000Z,98185.27
2018-02-14T17:28:33.536Z,98182.77
2018-02-14T17:31:01.128Z,98180.03
2018-02-14T17:33:28.656Z,98180.53
2018-02-14T17:35:56.327Z,98179.19
2018-02-14T17:38:24.132Z,98175.80
2018-02-14T17:40:51.982Z,98174.64
2018-02-14T17:43:19.542Z,98177.87
2018-02-14T17:45:47.099Z,98185.45
2018-02-14T17:48:14.626Z,98181.93
2018-02-14T17:50:42.187Z,98181.30
2018-02-14T17:53:09.728Z,98191.11
2018-02-14T17:55:37.280Z,98194.59
2018-02-14T17:58:04.832Z,98197.47
2018-02-14T18:00:32.351Z,98202.17
2018-02-14T18:02:59.892Z,98202.21
2018-02-14T18:05:27.423Z,98208.10
2018-02-14T18:07:54.974Z,98205.81
2018-02-14T18:10:22.485Z,98208.42
2018-02-14T18:12:50.117Z,98213.37
2018-02-14T18:15:17.660Z,98215.60
2018-02-14T18:17:45.222Z,98213.45
2018-02-14T18:20:12.912Z,98213.55
2018-02-14T18:22:40.440Z,98211.85
2018-02-14T18:25:07.954Z,98211.13
2018-02-14T18:27:35.494Z,98214.95
2018-02-14T18:30:03.095Z,98218.45
2018-02-14T18:32:30.691Z,98216.47
2018-02-14T18:34:58.262Z,98216.71
2018-02-14T18:37:25.921Z,98213.44
2018-02-14T18:39:53.492Z,98222.65
2018-02-14T18:42:21.063Z,98221.73
2018-02-14T18:44:48.631Z,98225.85
2018-02-14T18:47:16.178Z,98228.52
2018-02-14T18:49:43.717Z,98228.71
2018-02-14T18:52:11.248Z,98229.34
2018-02-14T18:54:38.803Z,98240.50
2018-02-14T18:57:06.493Z,98245.60
2018-02-14T18:59:34.044Z,98253.97
2018-02-14T19:02:01.598Z,98250.19
2018-02-14T19:04:29.243Z,98258.45
2018-02-14T19:06:56.792Z,98256.70
2018-02-14T19:09:24.348Z,98255.99
2018-02-14T19:11:51.918Z,98254.78
2018-02-14T19:14:19.476Z,98252.84
2018-02-14T19:16:47.371Z,98260.86
2018-02-14T19:19:14.931Z,98261.17
2018-02-14T19:21:42.585Z,98261.60
2018-02-14T19:24:10.158Z,98263.42
2018-02-14T19:26:37.793Z,98264.73
2018-02-14T19:29:05.320Z,98255.79
2018-02-14T19:31:33.060Z,98254.59
2018-02-14T19:34:00.628Z,98255.28
2018-02-14T19:36:28.234Z,98249.91
2018-02-14T19:38:56.159Z,98255.71
2018-02-14T19:41:23.938Z,98253.36
2018-02-14T19:43:51.540Z,98259.83
2018-02-14T19:46:19.097Z,98257.91
2018-02-14T19:48:46.775Z,98257.60
2018-02-14T19:51:14.367Z,98263.44
2018-02-14T19:53:41.936Z,98257.77
2018-02-14T19:56:09.505Z,98262.19
2018-02-14T19:58:37.075Z,98257.27
2018-02-14T20:01:04.623Z,98257.61
2018-02-14T20:03:32.441Z,98256.32
2018-02-14T20:06:00.103Z,98257.93
2018-02-14T20:08:27.692Z,98258.81
2018-02-14T20:10:55.236Z,98258.20
2018-02-14T20:13:22.834Z,98257.87
2018-02-14T20:15:50.386Z,98261.45
2018-02-14T20:18:17.953Z,98254.16
2018-02-14T20:20:45.567Z,98249.08
2018-02-14T20:23:13.173Z,98241.61
2018-02-14T20:25:40.849Z,98234.38
2018-02-14T20:28:08.432Z,98235.26
2018-02-14T20:30:35.963Z,98233.99
2018-02-14T20:33:03.559Z,98240.49
2018-02-14T20:35:31.201Z,98217.39
2018-02-14T20:37:58.765Z,98218.88
2018-02-14T20:40:26.295Z,98222.42
2018-02-14T20:42:53.822Z,98229.45
2018-02-14T20:45:21.422Z,98237.24
2018-02-14T20:47:49.083Z,98235.22
2018-02-14T20:50:16.688Z,98241.37
2018-02-14T20:52:44.245Z,98238.03
2018-02-14T20:55:11.808Z,98234.20
2018-02-14T20:57:39.498Z,98235.48
2018-02-14T21:00:07.077Z,98229.75
2018-02-14T21:02:34.692Z,98234.66
2018-02-14T21:05:02.216Z,98233.13
2018-02-14T21:07:29.769Z,98233.22
2018-02-14T21:09:57.335Z,98234.95
2018-02-14T21:12:24.912Z,98240.05
2018-02-14T21:14:52.472Z,98247.91
2018-02-14T21:17:20.012Z,98241.33
2018-02-14T21:19:47.603Z,98251.94
2018-02-14T21:22:15.180Z,98246.09
2018-02-14T21:24:42.732Z,98245.52
2018-02-14T21:27:10.250Z,98252.75
2018-02-14T21:29:37.793Z,98253.85
2018-02-14T21:32:05.334Z,98246.98
2018-02-14T21:34:32.882Z,98242.13
2018-02-14T21:37:00.421Z,98241.10
2018-02-14T21:39:28.077Z,98235.84
2018-02-14T21:41:55.632Z,98233.42
2018-02-14T21:44:23.313Z,98238.52
2018-02-14T21:46:50.882Z,98239.09
2018-02-14T21:49:18.592Z,98233.23
2018-02-14T21:51:46.186Z,98233.10
2018-02-14T21:54:13.816Z,98237.28
2018-02-14T21:56:41.357Z,98238.11
2018-02-14T21:59:08.896Z,98239.05
2018-02-14T22:01:36.453Z,98236.09
2018-02-14T22:04:04.067Z,98240.68
2018-02-14T22:06:31.631Z,98229.20
2018-02-14T22:08:59.176Z,98234.03
2018-02-14T22:11:26.702Z,98223.65
2018-02-14T22:13:54.283Z,98225.25
2018-02-14T22:16:21.877Z,98217.51
2018-02-14T22:18:49.486Z,98216.72
2018-02-14T22:21:17.017Z,98202.19
2018-02-14T22:23:44.775Z,98211.36
2018-02-14T22:26:12.394Z,98204.37
2018-02-14T22:28:40.071Z,98205.16
2018-02-14T22:31:07.838Z,98205.52
2018-02-14T22:33:35.416Z,98211.89
2018-02-14T22:36:03.062Z,98214.08
2018-02-14T22:38:30.618Z,98206.52
2018-02-14T22:40:58.176Z,98205.72
2018-02-14T22:43:25.817Z,98198.50
2018-02-14T22:45:54.547Z,98195.88
2018-02-14T22:48:22.420Z,98199.89
2018-02-14T22:50:49.953Z,98196.58
2018-02-14T22:53:17.515Z,98201.84
2018-02-14T22:55:45.276Z,98199.27
2018-02-14T22:58:12.816Z,98197.80
2018-02-14T23:00:40.370Z,98192.30
2018-02-14T23:03:07.906Z,98185.73
2018-02-14T23:05:35.453Z,98190.21
2018-02-14T23:08:03.002Z,98184.14
2018-02-14T23:10:30.550Z,98189.62
2018-02-14T23:12:58.087Z,98187.02
2018-02-14T23:15:26.038Z,98189.08
2018-02-14T23:17:53.587Z,98184.57
2018-02-14T23:20:21.119Z,98178.77
2018-02-14T23:22:48.652Z,98179.23
2018-02-14T23:25:16.172Z,98182.83
2018-02-14T23:27:43.712Z,98192.55
2018-02-14T23:30:13.117Z,98187.30
2018-02-14T23:32:40.691Z,98179.41
2018-02-14T23:35:08.226Z,98179.82
2018-02-14T23:37:35.904Z,98178.91
2018-02-14T23:40:03.446Z,98169.72
2018-02-14T23:42:30.995Z,98169.33
2018-02-14T23:44:58.520Z,98161.14
2018-02-14T23:47:26.040Z,98152.47
2018-02-14T23:49:53.613Z,98155.58
2018-02-14T23:52:21.137Z,98158.53
2018-02-14T23:54:48.686Z,98155.21
2018-02-14T23:57:16.220Z,98151.11
2018-02-14T23:59:43.847Z,98149.90
